Portada
METAR-TAF:

METAR-TAF

Aeropuertos :

Woomera, Australia

latitud: 31-08S, longitud: 136-49E, altitud: 165 m

Observación

El informe se hizo hace 22 minutos, a las 06:00 UTC
Viento 18 kt del norte
Temperatura 20°C
Humedad 28%
Presión 1019 hPa
Visibilidad 10 km o más

METAR: YPWR 230600Z AUTO 36018KT 9999 // NCD 20/01 Q1019 RF00.0/000.0

Hora: 15:52 (06:22 UTC)

Pronóstico

El informe se hizo hace 2 horas y 11 minutos, a las 04:11 UTC
Pronóstico válido del 23 a las 04 UTC al 24 a las 00 UTC
Viento 17 kt del norte con ráfagas de 27 kt
Visibilidad 10 km o más
sin nubes por debajo de 1500 m y sin presencia de cumulonimbus.
Evolucionando progresivamente
del 23 a las 05 UTC al 23 a las 07 UTC
Viento 12 kt del norte
Visibilidad 10 km o más
sin nubes por debajo de 1500 m y sin presencia de cumulonimbus.

TAF: YPWR 230411Z 2304/2400 36017G27KT CAVOK BECMG 2305/2307 36012KT CAVOK

Observaciones y pronósticos meteorológicos de más de 4000 aeropuertos (mensajes METAR y TAF).

Los puntos amarillos y rojos representan las estaciones disponibles.

Ponga el ratón en el punto deseado para ver el nombre de la estación.

Haga clic para ver las observaciones y los pronósticos meteorológicos.

Para cambiar el mapa : haga clic en los botones verdes con una cruz de color negro para hacer un zoom, en el botón verde con un guión para alejar o en las flechas verdes para mapas adyacentes.


METAR-TAF: